Carlsbad, NM

3:03 AM MDT on April 20, 2018 (GMT -0600)
South Carlsbad | | Change Station
Active Advisory: Fire Weather Warning

Elev 3153 ft 32.40 °N, 104.25 °W | Updated 9 minutes ago

Clear
Clear
58.6 °F
Feels Like 58.6 °F
N
2.7
Wind Variable Wind from SE

Today
High -- | Low -- °F
--% Chance of Precip.
Yesterday
High -- | Low -- °F
Precip. -- in
Pressure 29.87 in
Visibility 10.0 miles
Clouds Clear
Dew Point 39 °F
Humidity 48%
Rainfall 0.00 in
Snow Depth Not available.
6:21 AM 7:30 PM
Waxing Crescent, 22% visible
METAR KCNM 200853Z AUTO 15011KT 10SM CLR 14/02 A3000 RMK AO2 SLP115 T01440022 56018
Pressure 29.87 in
Visibility 10.0 miles
Clouds Clear
Dew Point 39 °F
Humidity 48%
Rainfall 0.00 in
Snow Depth Not available.
6:21 AM 7:30 PM
Waxing Crescent, 22% visible
METAR KCNM 200853Z AUTO 15011KT 10SM CLR 14/02 A3000 RMK AO2 SLP115 T01440022 56018

Get Your Daily Forecast Email!

Thanks for signing up!

Be on the lookout for a verification email in your inbox.

You'll start receiving severe weather alerts in your inbox..

×

10-Day Weather Forecast

Almanac

Astronomy

Apr. 20, 2018 Rise Set
Actual Time
Civil Twilight
Nautical Twilight
Astronomical Twilight
Moon
Length of Visible Light
Length of Day
Tomorrow will be .
, % of the Moon is Illuminated

Today's Extremes

State Highs State Lows

Community

WunderPhotos

Category 6

Welcome to Category 6. This is the collective home for Weather Underground's featured writeups by Dr. Jeff Masters (right), Bob Henson (left), Chris Burt, and other regular contributors.

Nearby

Air Quality

  Air Quality AQ Index Pollutant
Not available.

Snow Depth

Station Depth Elevation

Earthquake Activity

City Distance Mag. Time & Date
Minimum magnitude displayed is 2.5.

Coastal Water Temperatures

Place Temperature

Stations

Nearby Weather Stations

Station Location Temp. Windchill Dew Point Humidity Wind Precip. Elev Updated Type
                   

Watches & Warnings

Fire Weather Warning
Issued: 1:57 PM MDT Apr. 19, 2018 – National Weather Service

... Red flag warning remains in effect from 11 am CDT /10 am MDT/
to 9 PM CDT /8 PM MDT/ Friday for windy and dry conditions, and
very high to extreme fire danger for all of southeast New Mexico
and south through the Davis Mountains and Marfa Plateau...

* wind... southwest 30 to 50 mph in the Guadalupe Mountains with
higher gusts. Southwest 20 to 30 in the plains with higher
gusts.

* Humidity... 5 to 15 percent.

* Fire danger... very high to extreme.

* Impacts... any fires that develop will likely spread rapidly.
Outdoor burning is not recommended.

Precautionary/preparedness actions...

A red flag warning means that critical fire weather conditions
are either occurring now or will shortly. A combination of strong
winds, low relative humidity and warm temperatures will increase
potential for fire growth.